Amiret, Minnesota
Current Conditions -  °F | °C
As of 5:33 AM on Saturday 25 Oct 2014 (Local Time) from KTKC Reporting Station
Clear Clear  
Wind Chill: 13°   Ceiling: Unl
Heat Index: 13°   Visibility: 10mi
Dew Point:   Wind: 7mph
Humidity: 49%   Direction: 310°NW
Pressure: 30.06"   Gusts: NA
Location:  44.2253°N, 95.6512°W
Report Text: KTKC 251033Z AUTO 31006KT 10SM CLR 13/02 A3006 RMK AO2 T01260022
Loading
Personal Weather Stations






























Interactive Weather Map
Tropical Storm Tracking
New forecast layout! Learn more

10-Day Weather Forecast

Advertisements
Track Severe Weather on mobile